Time;durP1;ratioP1;P1;durP2;ratioP2;P2;SDS_P1;SDS_P2;PMS_P1;PMS_P2;Temp;Humidity;BMP_temperature;BMP_pressure;BME280_temperature;BME280_humidity;BME280_pressure;Samples;Min_cycle;Max_cycle;Signal;HPM_P1;HPM_P2
2022/09/05 00:00:30;;;;;;;3.28;3.08;;;;;;;;;;12462130;28;20495;-73
2022/09/05 00:06:35;;;;;;;4.00;3.67;;;;;;;;;;12478118;28;20479;-73
2022/09/05 00:12:37;;;;;;;3.42;3.22;;;;;;;;;;12495787;28;20072;-73
2022/09/05 00:18:42;;;;;;;3.42;3.22;;;;;;;;;;12460693;28;20041;-74
2022/09/05 00:24:56;;;;;;;4.35;4.05;;;;;;;;;;12477090;28;20045;-73
2022/09/05 00:31:03;;;;;;;3.83;3.58;;;;;;;;;;12477076;28;20041;-73
2022/09/05 00:37:08;;;;;;;3.70;3.40;;;;;;;;;;12494511;28;20056;-74
2022/09/05 00:43:12;;;;;;;3.17;2.97;;;;;;;;;;12495129;28;20330;-73
2022/09/05 00:49:14;;;;;;;4.10;3.80;;;;;;;;;;12493060;28;20407;-74
2022/09/05 00:55:34;;;;;;;3.90;3.58;;;;;;;;;;12459547;28;20466;-73
2022/09/05 01:01:47;;;;;;;3.40;3.17;;;;;;;;;;12493289;28;20042;-73
2022/09/05 01:08:18;;;;;;;3.42;3.10;;;;;;;;;;12474852;28;20407;-73
2022/09/05 01:14:38;;;;;;;3.20;3.00;;;;;;;;;;12475450;28;20380;-73
2022/09/05 01:20:59;;;;;;;3.00;2.80;;;;;;;;;;12484105;28;20038;-73
2022/09/05 01:27:20;;;;;;;3.22;2.95;;;;;;;;;;12483839;28;20502;-73
2022/09/05 01:33:22;;;;;;;3.40;3.10;;;;;;;;;;12484132;28;20033;-73
2022/09/05 01:39:35;;;;;;;3.15;2.95;;;;;;;;;;12467663;28;20064;-73
2022/09/05 01:45:46;;;;;;;3.00;2.78;;;;;;;;;;12483304;28;20045;-73
2022/09/05 01:52:08;;;;;;;3.55;2.63;;;;;;;;;;12482700;28;20029;-74
2022/09/05 01:58:19;;;;;;;2.63;2.47;;;;;;;;;;12469410;28;20049;-73
2022/09/05 02:04:40;;;;;;;3.03;2.83;;;;;;;;;;12482137;28;20399;-73
2022/09/05 02:10:44;;;;;;;3.13;2.88;;;;;;;;;;12482262;28;20049;-73
2022/09/05 02:16:48;;;;;;;2.88;2.67;;;;;;;;;;12499954;28;20040;-73
2022/09/05 02:22:59;;;;;;;2.90;2.78;;;;;;;;;;12481847;28;20044;-73
2022/09/05 02:29:06;;;;;;;2.37;2.27;;;;;;;;;;12498140;28;20048;-73
2022/09/05 02:35:37;;;;;;;2.85;2.65;;;;;;;;;;12498526;28;20037;-73
2022/09/05 02:41:54;;;;;;;3.00;2.80;;;;;;;;;;12465075;28;20037;-73
2022/09/05 02:47:59;;;;;;;3.00;2.80;;;;;;;;;;12498651;28;20184;-73
2022/09/05 02:54:27;;;;;;;2.95;2.75;;;;;;;;;;12480463;28;20049;-73
2022/09/05 03:00:33;;;;;;;2.58;2.40;;;;;;;;;;12476252;28;20041;-73
2022/09/05 03:06:40;;;;;;;3.08;2.88;;;;;;;;;;12479388;28;20041;-73
2022/09/05 03:12:45;;;;;;;3.50;3.30;;;;;;;;;;12479400;28;20060;-73
2022/09/05 03:18:47;;;;;;;2.95;2.75;;;;;;;;;;12478319;28;20044;-73
2022/09/05 03:25:07;;;;;;;3.38;3.08;;;;;;;;;;12462606;28;20036;-73
2022/09/05 03:31:18;;;;;;;3.30;3.10;;;;;;;;;;12477766;28;20491;-74
2022/09/05 03:37:39;;;;;;;4.25;3.80;;;;;;;;;;12495161;28;20040;-73
2022/09/05 03:43:48;;;;;;;4.53;4.22;;;;;;;;;;12477802;28;20096;-73
2022/09/05 03:50:08;;;;;;;3.47;3.28;;;;;;;;;;12476646;28;20483;-73
2022/09/05 03:56:16;;;;;;;3.53;3.22;;;;;;;;;;12477110;28;20033;-73
2022/09/05 04:02:22;;;;;;;3.85;3.53;;;;;;;;;;12476557;28;20399;-73
2022/09/05 04:08:39;;;;;;;3.30;3.10;;;;;;;;;;12493949;28;20057;-75
2022/09/05 04:14:46;;;;;;;2.90;2.70;;;;;;;;;;12476312;28;20526;-73
2022/09/05 04:21:00;;;;;;;2.90;2.70;;;;;;;;;;12476395;28;20399;-73
2022/09/05 04:27:20;;;;;;;3.15;2.92;;;;;;;;;;12493709;28;20053;-72
2022/09/05 04:33:31;;;;;;;3.30;3.10;;;;;;;;;;12494233;28;20029;-72
2022/09/05 04:39:34;;;;;;;3.05;2.80;;;;;;;;;;12476795;28;20033;-72
2022/09/05 04:45:39;;;;;;;2.90;2.70;;;;;;;;;;12475393;28;20041;-73
2022/09/05 04:52:00;;;;;;;4.07;2.70;;;;;;;;;;12497912;28;20033;-72
2022/09/05 04:58:14;;;;;;;3.20;3.00;;;;;;;;;;12502980;28;20049;-74
2022/09/05 05:04:18;;;;;;;3.03;2.83;;;;;;;;;;12485176;28;20435;-74
2022/09/05 05:10:29;;;;;;;3.00;2.78;;;;;;;;;;12484376;28;20053;-73
2022/09/05 05:16:33;;;;;;;3.03;2.83;;;;;;;;;;12502135;28;20037;-73
2022/09/05 05:22:37;;;;;;;6.53;6.07;;;;;;;;;;12502409;28;20582;-74
2022/09/05 05:28:39;;;;;;;4.40;4.10;;;;;;;;;;12502520;28;20044;-73
2022/09/05 05:34:45;;;;;;;3.13;2.92;;;;;;;;;;12483704;28;20033;-74
2022/09/05 05:40:51;;;;;;;2.90;2.70;;;;;;;;;;12500607;28;20037;-74
2022/09/05 05:46:59;;;;;;;3.08;2.88;;;;;;;;;;12500613;28;20052;-74
2022/09/05 05:53:21;;;;;;;4.57;4.25;;;;;;;;;;12483640;28;20119;-73
2022/09/05 05:59:29;;;;;;;7.18;6.57;;;;;;;;;;12482309;28;20033;-74
2022/09/05 06:05:34;;;;;;;4.38;4.07;;;;;;;;;;12481933;28;20041;-74
2022/09/05 06:11:39;;;;;;;4.05;3.78;;;;;;;;;;12482223;28;20053;-74
2022/09/05 06:17:43;;;;;;;5.00;4.55;;;;;;;;;;12499281;28;20628;-74
2022/09/05 06:23:51;;;;;;;2.97;2.78;;;;;;;;;;12465397;28;20033;-74
2022/09/05 06:29:54;;;;;;;3.05;2.85;;;;;;;;;;12478271;28;20041;-74
2022/09/05 06:36:15;;;;;;;2.88;2.67;;;;;;;;;;12565827;28;20475;-74
2022/09/05 06:42:32;;;;;;;3.58;2.40;;;;;;;;;;12539027;28;20060;-74
2022/09/05 07:04:34;;;;;;;2.45;1.60;;;;;;;;;;12540953;28;20048;-74
2022/09/05 07:10:38;;;;;;;1.93;1.33;;;;;;;;;;12527366;28;20045;-75
2022/09/05 07:17:12;;;;;;;1.50;1.40;;;;;;;;;;12544766;28;20402;-75
2022/09/05 07:23:17;;;;;;;1.50;1.40;;;;;;;;;;12493012;28;20072;-74
2022/09/05 07:29:40;;;;;;;1.10;1.00;;;;;;;;;;12545843;28;20033;-75
2022/09/05 07:35:43;;;;;;;2.15;1.83;;;;;;;;;;12511342;28;20398;-74
2022/09/05 07:41:50;;;;;;;1.77;1.17;;;;;;;;;;12528774;28;20040;-74
2022/09/05 07:48:11;;;;;;;1.95;1.40;;;;;;;;;;12514785;28;20426;-73
2022/09/05 07:54:25;;;;;;;1.40;1.30;;;;;;;;;;12538207;28;20033;-74
2022/09/05 08:00:28;;;;;;;1.52;1.23;;;;;;;;;;12546355;28;20044;-74
2022/09/05 08:06:30;;;;;;;1.60;1.50;;;;;;;;;;12561634;28;20048;-74
2022/09/05 08:12:33;;;;;;;1.40;1.30;;;;;;;;;;12545067;28;20052;-74
2022/09/05 08:18:44;;;;;;;1.70;1.30;;;;;;;;;;12544630;28;20033;-73
2022/09/05 08:25:00;;;;;;;1.30;1.20;;;;;;;;;;12526432;28;20517;-74
2022/09/05 08:31:06;;;;;;;1.30;1.20;;;;;;;;;;12510025;28;20044;-73
2022/09/05 08:37:11;;;;;;;1.65;1.20;;;;;;;;;;12509478;28;20403;-75
2022/09/05 08:43:20;;;;;;;1.92;1.75;;;;;;;;;;12526717;28;20029;-73
2022/09/05 08:49:41;;;;;;;1.30;1.20;;;;;;;;;;12526450;28;20487;-73
2022/09/05 08:55:43;;;;;;;1.52;1.33;;;;;;;;;;12543308;28;20033;-73
2022/09/05 09:02:10;;;;;;;2.55;1.60;;;;;;;;;;12543484;28;20025;-73
2022/09/05 09:08:42;;;;;;;2.53;2.33;;;;;;;;;;12524132;28;20061;-74
2022/09/05 09:14:53;;;;;;;2.58;2.38;;;;;;;;;;12453809;28;20166;-74
2022/09/05 09:21:20;;;;;;;1.90;1.80;;;;;;;;;;12572655;28;20047;-74
2022/09/05 09:27:28;;;;;;;1.80;1.70;;;;;;;;;;12573562;28;20417;-74
2022/09/05 09:33:56;;;;;;;1.50;1.40;;;;;;;;;;12573153;28;20036;-73
2022/09/05 09:40:16;;;;;;;1.45;1.35;;;;;;;;;;12542119;28;20048;-73
2022/09/05 09:46:30;;;;;;;1.67;1.58;;;;;;;;;;12564729;28;20056;-74
2022/09/05 09:52:51;;;;;;;1.75;1.65;;;;;;;;;;12599209;28;20033;-74
2022/09/05 09:58:58;;;;;;;1.45;1.35;;;;;;;;;;12598792;28;20021;-74
2022/09/05 10:05:19;;;;;;;1.48;1.35;;;;;;;;;;12598486;28;20029;-75
2022/09/05 10:11:49;;;;;;;1.55;1.40;;;;;;;;;;12580629;28;20052;-74
2022/09/05 10:17:51;;;;;;;2.10;1.40;;;;;;;;;;12598361;28;20086;-75
2022/09/05 10:24:12;;;;;;;2.17;1.50;;;;;;;;;;12563411;28;20051;-75
2022/09/05 10:30:22;;;;;;;1.93;1.83;;;;;;;;;;12597557;28;20039;-75
2022/09/05 10:36:28;;;;;;;1.40;1.30;;;;;;;;;;12580078;28;20032;-74
2022/09/05 10:42:42;;;;;;;1.45;1.35;;;;;;;;;;12598003;28;20035;-73
2022/09/05 10:48:53;;;;;;;1.50;1.40;;;;;;;;;;12601074;28;20048;-74
2022/09/05 10:55:07;;;;;;;1.45;1.35;;;;;;;;;;12563575;28;20029;-75
2022/09/05 11:01:12;;;;;;;1.85;1.38;;;;;;;;;;12597994;28;20394;-75
2022/09/05 11:07:32;;;;;;;1.52;1.42;;;;;;;;;;12578117;28;20063;-74
2022/09/05 11:13:44;;;;;;;2.47;1.40;;;;;;;;;;12596874;28;20045;-75
2022/09/05 11:19:54;;;;;;;1.58;1.30;;;;;;;;;;12597212;28;20040;-74
2022/09/05 11:25:59;;;;;;;0.90;0.90;;;;;;;;;;12596468;28;20043;-75
2022/09/05 11:32:07;;;;;;;2.15;1.13;;;;;;;;;;12595919;28;20047;-75
2022/09/05 11:38:13;;;;;;;0.80;0.80;;;;;;;;;;12577414;28;20390;-75
2022/09/05 11:44:24;;;;;;;0.73;0.73;;;;;;;;;;12595770;28;20047;-74
2022/09/05 11:50:44;;;;;;;1.00;0.82;;;;;;;;;;12577134;28;20055;-75
2022/09/05 11:56:58;;;;;;;1.73;1.10;;;;;;;;;;12576891;28;20060;-73
2022/09/05 12:03:19;;;;;;;1.40;1.30;;;;;;;;;;12590513;28;20051;-74
2022/09/05 12:09:27;;;;;;;1.15;0.75;;;;;;;;;;12576079;28;20509;-75
2022/09/05 12:15:32;;;;;;;0.93;0.80;;;;;;;;;;12594444;28;20036;-75
2022/09/05 12:21:41;;;;;;;1.50;0.80;;;;;;;;;;12576362;28;20036;-75
2022/09/05 12:27:46;;;;;;;0.80;0.80;;;;;;;;;;12585232;28;20041;-75
2022/09/05 12:33:50;;;;;;;0.88;0.88;;;;;;;;;;12593555;28;20047;-75
2022/09/05 12:40:10;;;;;;;1.25;0.80;;;;;;;;;;12593871;28;20039;-75
2022/09/05 12:46:35;;;;;;;1.07;0.90;;;;;;;;;;12593103;28;20075;-75
2022/09/05 12:52:41;;;;;;;0.68;0.68;;;;;;;;;;12580438;28;20048;-75
2022/09/05 12:58:45;;;;;;;1.98;1.52;;;;;;;;;;12593007;28;20037;-75
2022/09/05 13:04:53;;;;;;;0.93;0.90;;;;;;;;;;12590790;28;20406;-75
2022/09/05 13:10:57;;;;;;;1.73;0.77;;;;;;;;;;12574115;28;20040;-76
2022/09/05 13:17:01;;;;;;;0.65;0.65;;;;;;;;;;12600631;28;20041;-74
2022/09/05 13:23:12;;;;;;;0.90;0.90;;;;;;;;;;12599853;28;20029;-74
2022/09/05 13:29:19;;;;;;;0.60;0.60;;;;;;;;;;12600031;28;20393;-73
2022/09/05 13:35:26;;;;;;;0.93;0.80;;;;;;;;;;12598978;28;20032;-73
2022/09/05 13:41:29;;;;;;;0.80;0.80;;;;;;;;;;12599927;28;20378;-73
2022/09/05 13:47:31;;;;;;;0.73;0.73;;;;;;;;;;12581016;28;20094;-73
2022/09/05 13:53:38;;;;;;;1.85;0.88;;;;;;;;;;12598064;28;20040;-74
2022/09/05 13:59:41;;;;;;;0.80;0.80;;;;;;;;;;12597765;28;20032;-74
2022/09/05 14:05:54;;;;;;;1.35;0.85;;;;;;;;;;12563433;28;20039;-74
2022/09/05 14:12:04;;;;;;;0.77;0.77;;;;;;;;;;12579205;28;20045;-74
2022/09/05 14:18:16;;;;;;;0.90;0.80;;;;;;;;;;12597792;28;20394;-74
2022/09/05 14:24:23;;;;;;;0.95;0.85;;;;;;;;;;12578397;28;20063;-75
2022/09/05 14:30:32;;;;;;;0.70;0.70;;;;;;;;;;12579101;28;20036;-74
2022/09/05 14:36:52;;;;;;;1.08;1.02;;;;;;;;;;12596163;28;20048;-75
2022/09/05 14:42:59;;;;;;;2.10;0.70;;;;;;;;;;12578325;28;20032;-74
2022/09/05 14:49:22;;;;;;;0.80;0.80;;;;;;;;;;12577692;28;20059;-73
2022/09/05 14:55:25;;;;;;;0.98;0.90;;;;;;;;;;12561375;28;20037;-74
2022/09/05 15:01:29;;;;;;;1.90;1.42;;;;;;;;;;12577030;28;20036;-74
2022/09/05 15:07:33;;;;;;;0.80;0.77;;;;;;;;;;12560028;28;20044;-75
2022/09/05 15:13:37;;;;;;;0.82;0.70;;;;;;;;;;12576419;28;20052;-75
2022/09/05 15:19:48;;;;;;;1.20;0.63;;;;;;;;;;12576363;28;20048;-74
2022/09/05 15:25:58;;;;;;;0.65;0.55;;;;;;;;;;12575756;28;20037;-74
2022/09/05 15:32:22;;;;;;;0.73;0.73;;;;;;;;;;12593241;28;20364;-74
2022/09/05 15:38:25;;;;;;;0.70;0.70;;;;;;;;;;12592400;28;20025;-74
2022/09/05 15:44:29;;;;;;;0.73;0.65;;;;;;;;;;12558466;28;20036;-75
2022/09/05 15:50:37;;;;;;;0.85;0.70;;;;;;;;;;12558431;28;20041;-75
2022/09/05 15:56:45;;;;;;;0.63;0.52;;;;;;;;;;12592411;28;20036;-75
2022/09/05 16:02:47;;;;;;;0.80;0.60;;;;;;;;;;12574002;28;20040;-75
2022/09/05 16:08:51;;;;;;;1.27;0.90;;;;;;;;;;12591449;28;20063;-74
2022/09/05 16:14:54;;;;;;;1.38;1.05;;;;;;;;;;12591865;28;20028;-74
2022/09/05 16:20:59;;;;;;;1.60;0.80;;;;;;;;;;12574442;28;20386;-74
2022/09/05 16:27:04;;;;;;;0.70;0.70;;;;;;;;;;12573342;28;20501;-75
2022/09/05 16:33:05;;;;;;;0.70;0.70;;;;;;;;;;12591097;28;20040;-75
2022/09/05 16:39:12;;;;;;;0.55;0.55;;;;;;;;;;12591099;28;20036;-73
2022/09/05 16:45:32;;;;;;;0.70;0.70;;;;;;;;;;12557421;28;20047;-74
2022/09/05 16:51:34;;;;;;;1.17;0.73;;;;;;;;;;12600919;28;20039;-74
2022/09/05 16:57:39;;;;;;;0.50;0.50;;;;;;;;;;12600505;28;20033;-74
2022/09/05 17:04:00;;;;;;;0.82;0.47;;;;;;;;;;12566714;28;20414;-74
2022/09/05 17:10:24;;;;;;;0.93;0.80;;;;;;;;;;12599945;28;20060;-75
2022/09/05 17:16:33;;;;;;;1.00;0.65;;;;;;;;;;12599266;28;20036;-73
2022/09/05 17:22:44;;;;;;;1.75;0.80;;;;;;;;;;12564963;28;20471;-75
2022/09/05 17:28:49;;;;;;;;;;;;;;;;;;12599432;28;20040;-75
2022/09/05 17:34:50;;;;;;;0.70;0.70;;;;;;;;;;12598279;28;20562;-74
2022/09/05 17:41:01;;;;;;;0.77;0.60;;;;;;;;;;12581581;28;20036;-74
2022/09/05 17:47:19;;;;;;;0.65;0.65;;;;;;;;;;12599246;28;20036;-74
2022/09/05 17:53:23;;;;;;;0.60;0.60;;;;;;;;;;12564166;28;20024;-74
2022/09/05 17:59:27;;;;;;;0.45;0.45;;;;;;;;;;12596432;28;20036;-73
2022/09/05 18:05:51;;;;;;;1.48;0.70;;;;;;;;;;12597054;28;20383;-74
2022/09/05 18:12:09;;;;;;;0.95;0.95;;;;;;;;;;12562191;28;20064;-75
2022/09/05 18:18:29;;;;;;;0.93;0.80;;;;;;;;;;12562014;28;20037;-74
2022/09/05 18:24:31;;;;;;;0.80;0.80;;;;;;;;;;12562328;28;20381;-75
2022/09/05 18:30:34;;;;;;;0.60;0.60;;;;;;;;;;12595873;28;20036;-75
2022/09/05 18:36:36;;;;;;;0.98;0.70;;;;;;;;;;12596052;28;20033;-75
2022/09/05 18:42:39;;;;;;;2.53;0.68;;;;;;;;;;12596087;28;20391;-75
2022/09/05 18:48:50;;;;;;;0.70;0.70;;;;;;;;;;12594850;28;20036;-74
2022/09/05 18:54:55;;;;;;;1.17;0.60;;;;;;;;;;12595135;28;20035;-73
2022/09/05 19:01:13;;;;;;;0.65;0.65;;;;;;;;;;12576729;28;20390;-74
2022/09/05 19:07:19;;;;;;;1.33;0.95;;;;;;;;;;12576374;28;20522;-73
2022/09/05 19:13:23;;;;;;;0.70;0.70;;;;;;;;;;12576498;28;20053;-74
2022/09/05 19:19:27;;;;;;;0.68;0.68;;;;;;;;;;12593427;28;20040;-75
2022/09/05 19:25:31;;;;;;;1.50;1.00;;;;;;;;;;12593561;28;20032;-74
2022/09/05 19:31:35;;;;;;;1.33;1.10;;;;;;;;;;12593789;28;20490;-74
2022/09/05 19:37:37;;;;;;;2.08;0.90;;;;;;;;;;12576340;28;20035;-75
2022/09/05 19:43:54;;;;;;;1.50;1.40;;;;;;;;;;12593820;28;20037;-74
2022/09/05 19:50:04;;;;;;;1.65;1.33;;;;;;;;;;12575741;28;20044;-75
2022/09/05 19:56:06;;;;;;;1.38;1.27;;;;;;;;;;12576047;28;20398;-74
2022/09/05 20:02:14;;;;;;;1.85;1.23;;;;;;;;;;12593206;28;20054;-75
2022/09/05 20:08:27;;;;;;;1.42;1.27;;;;;;;;;;12574472;28;20410;-75
2022/09/05 20:14:30;;;;;;;1.23;1.20;;;;;;;;;;12575221;28;20032;-74
2022/09/05 20:20:32;;;;;;;1.33;1.13;;;;;;;;;;12592004;28;20029;-74
2022/09/05 20:26:34;;;;;;;;;;;;;;;;;;12574695;28;20036;-74
2022/09/05 20:32:38;;;;;;;1.67;1.58;;;;;;;;;;12591976;28;19916;-74
2022/09/05 20:38:46;;;;;;;1.85;1.75;;;;;;;;;;12557409;28;20029;-75
2022/09/05 20:44:49;;;;;;;3.60;2.15;;;;;;;;;;12574778;28;20032;-74
2022/09/05 20:50:54;;;;;;;2.10;1.88;;;;;;;;;;12591363;28;20504;-75
2022/09/05 20:56:59;;;;;;;2.85;2.47;;;;;;;;;;12574290;28;20466;-75
2022/09/05 21:03:00;;;;;;;2.63;2.42;;;;;;;;;;12574967;28;20033;-75
2022/09/05 21:09:10;;;;;;;2.67;2.40;;;;;;;;;;12574614;28;20056;-74
2022/09/05 21:15:16;;;;;;;2.97;2.75;;;;;;;;;;12575830;28;20041;-74
2022/09/05 21:21:25;;;;;;;2.50;2.30;;;;;;;;;;12592576;28;20036;-75
2022/09/05 21:27:27;;;;;;;2.55;2.28;;;;;;;;;;12592278;28;20041;-75
2022/09/05 21:33:28;;;;;;;;;;;;;;;;;;12595444;28;20390;-74
2022/09/05 21:39:31;;;;;;;2.50;2.07;;;;;;;;;;12601326;28;19908;-75
2022/09/05 21:45:33;;;;;;;2.47;2.30;;;;;;;;;;12600792;28;20033;-74
2022/09/05 21:51:36;;;;;;;3.00;2.78;;;;;;;;;;12582915;28;20041;-74
2022/09/05 21:57:37;;;;;;;2.67;2.47;;;;;;;;;;12582794;28;20037;-74
2022/09/05 22:03:39;;;;;;;2.30;2.10;;;;;;;;;;12582278;28;20036;-74
2022/09/05 22:09:41;;;;;;;2.30;2.10;;;;;;;;;;12564080;28;20045;-75
2022/09/05 22:15:47;;;;;;;2.30;2.17;;;;;;;;;;12564527;28;20036;-74
2022/09/05 22:21:50;;;;;;;2.38;2.17;;;;;;;;;;12598447;28;20033;-74
2022/09/05 22:28:11;;;;;;;2.17;1.90;;;;;;;;;;12580054;28;20053;-74
2022/09/05 22:34:13;;;;;;;2.70;2.50;;;;;;;;;;12597714;28;20036;-74
2022/09/05 22:40:16;;;;;;;2.53;2.17;;;;;;;;;;12580208;28;20043;-74
2022/09/05 22:46:18;;;;;;;2.45;2.25;;;;;;;;;;12596702;28;20474;-74
2022/09/05 22:52:19;;;;;;;2.22;2.10;;;;;;;;;;12596849;28;20414;-74
2022/09/05 22:58:21;;;;;;;2.20;1.88;;;;;;;;;;12562200;28;20040;-74
2022/09/05 23:04:23;;;;;;;2.72;2.25;;;;;;;;;;12577962;28;20033;-74
2022/09/05 23:10:25;;;;;;;3.05;2.17;;;;;;;;;;12595446;28;20056;-74
2022/09/05 23:16:27;;;;;;;2.20;2.10;;;;;;;;;;12596130;28;20033;-75
2022/09/05 23:22:28;;;;;;;2.60;2.40;;;;;;;;;;12595965;28;20545;-75
2022/09/05 23:28:31;;;;;;;2.00;1.90;;;;;;;;;;12577166;28;20040;-74
2022/09/05 23:34:32;;;;;;;2.60;2.35;;;;;;;;;;12576578;28;20036;-74
2022/09/05 23:40:34;;;;;;;2.25;2.15;;;;;;;;;;12595318;28;20052;-73
2022/09/05 23:46:36;;;;;;;3.22;2.97;;;;;;;;;;12576296;28;20040;-73
2022/09/05 23:52:39;;;;;;;2.13;2.03;;;;;;;;;;12594840;28;20045;-73
2022/09/05 23:58:41;;;;;;;2.00;1.90;;;;;;;;;;12575085;28;20035;-73
